createdAt,value
2023-04-25T00:00:24.772Z,2.20
2023-04-25T00:05:46.915Z,2.10
2023-04-25T00:11:08.768Z,1.85
2023-04-25T00:16:30.907Z,1.85
2023-04-25T00:21:53.775Z,1.80
2023-04-25T00:27:15.756Z,2.08
2023-04-25T00:32:37.790Z,1.98
2023-04-25T00:37:59.759Z,2.22
2023-04-25T00:43:21.770Z,2.10
2023-04-25T00:48:43.789Z,1.85
2023-04-25T00:54:05.783Z,1.95
2023-04-25T00:59:27.738Z,1.70
2023-04-25T01:04:49.753Z,1.90
2023-04-25T01:10:13.778Z,1.70
2023-04-25T01:15:35.747Z,1.80
2023-04-25T01:21:01.778Z,1.95
2023-04-25T01:26:24.736Z,1.70
2023-04-25T01:31:46.789Z,1.83
2023-04-25T01:37:10.740Z,2.00
2023-04-25T01:42:32.731Z,2.08
2023-04-25T01:47:57.793Z,1.88
2023-04-25T01:53:21.766Z,1.90
2023-04-25T01:58:43.719Z,1.88
2023-04-25T02:04:08.992Z,2.00
2023-04-25T02:09:30.734Z,2.25
2023-04-25T02:14:54.742Z,1.80
2023-04-25T02:20:27.793Z,2.22
2023-04-25T02:25:50.753Z,2.47
2023-04-25T02:31:12.786Z,2.38
2023-04-25T02:36:34.726Z,2.50
2023-04-25T02:41:56.737Z,2.75
2023-04-25T02:47:18.787Z,3.00
2023-04-25T02:52:40.735Z,2.50
2023-04-25T02:58:06.754Z,7.35
2023-04-25T03:03:33.760Z,2.78
2023-04-25T03:08:55.741Z,2.42
2023-04-25T03:14:17.740Z,2.15
2023-04-25T03:19:39.736Z,2.33
2023-04-25T03:25:01.741Z,2.13
2023-04-25T03:30:23.743Z,2.60
2023-04-25T03:35:45.710Z,2.28
2023-04-25T03:41:08.738Z,2.78
2023-04-25T03:46:37.712Z,2.28
2023-04-25T03:51:59.734Z,2.10
2023-04-25T03:57:25.736Z,2.30
2023-04-25T04:02:47.829Z,2.22
2023-04-25T04:08:09.704Z,2.38
2023-04-25T04:13:32.722Z,2.13
2023-04-25T04:18:55.713Z,2.50
2023-04-25T04:24:17.716Z,2.42
2023-04-25T04:29:45.706Z,1.77
2023-04-25T04:35:16.697Z,2.58
2023-04-25T04:40:39.679Z,2.38
2023-04-25T04:46:11.747Z,2.42
2023-04-25T04:51:52.726Z,2.70
2023-04-25T04:57:29.720Z,2.70
2023-04-25T05:03:10.845Z,2.70
2023-04-25T05:08:41.786Z,2.47
2023-04-25T05:14:22.691Z,2.10
2023-04-25T05:19:55.689Z,2.13
2023-04-25T05:25:40.676Z,2.10
2023-04-25T05:31:21.738Z,2.30
2023-04-25T05:36:55.684Z,2.25
2023-04-25T05:42:18.682Z,2.72
2023-04-25T05:47:46.686Z,2.58
2023-04-25T05:53:21.670Z,2.53
2023-04-25T05:58:48.692Z,2.50
2023-04-25T06:04:10.905Z,2.38
2023-04-25T06:09:32.673Z,2.03
2023-04-25T06:14:54.752Z,2.85
2023-04-25T06:20:16.685Z,2.85
2023-04-25T06:25:39.661Z,2.90
2023-04-25T06:31:01.686Z,3.17
2023-04-25T06:36:23.665Z,3.03
2023-04-25T06:47:29.725Z,2.70
2023-04-25T06:52:51.670Z,2.88
2023-04-25T06:58:14.648Z,3.13
2023-04-25T07:03:53.004Z,3.50
2023-04-25T07:09:14.646Z,3.38
2023-04-25T07:14:38.661Z,3.35
2023-04-25T07:20:00.681Z,3.10
2023-04-25T07:25:22.675Z,2.67
2023-04-25T07:30:44.640Z,2.92
2023-04-25T07:36:06.661Z,2.50
2023-04-25T07:41:28.655Z,2.60
2023-04-25T07:46:50.654Z,2.95
2023-04-25T07:52:16.672Z,2.95
2023-04-25T07:57:45.652Z,2.70
2023-04-25T08:03:08.884Z,2.60
2023-04-25T08:08:31.720Z,2.47
2023-04-25T08:13:54.695Z,2.85
2023-04-25T08:19:16.967Z,2.78
2023-04-25T08:24:39.962Z,2.97
2023-04-25T08:30:01.722Z,2.78
2023-04-25T08:35:24.678Z,2.92
2023-04-25T08:40:51.678Z,2.60
2023-04-25T08:46:13.841Z,3.03
2023-04-25T08:52:04.645Z,2.95
2023-04-25T08:57:28.645Z,2.40
2023-04-25T09:02:50.831Z,1.88
2023-04-25T09:08:12.614Z,2.33
2023-04-25T09:13:43.632Z,3.63
2023-04-25T09:19:12.625Z,2.72
2023-04-25T09:24:56.640Z,2.55
2023-04-25T09:30:18.667Z,1.70
2023-04-25T09:36:00.634Z,2.50
2023-04-25T09:41:34.655Z,2.88
2023-04-25T09:47:00.615Z,3.40
2023-04-25T09:52:25.847Z,3.67
2023-04-25T09:58:05.619Z,3.97
2023-04-25T10:03:31.870Z,4.57
2023-04-25T10:09:06.628Z,4.78
2023-04-25T10:14:29.622Z,4.55
2023-04-25T10:19:51.590Z,4.40
2023-04-25T10:25:21.644Z,3.17
2023-04-25T10:30:43.621Z,2.55
2023-04-25T10:36:05.600Z,2.28
2023-04-25T10:41:29.625Z,2.40
2023-04-25T10:46:51.658Z,2.33
2023-04-25T10:52:20.911Z,2.03
2023-04-25T10:57:52.615Z,1.80
2023-04-25T11:03:14.961Z,1.90
2023-04-25T11:08:53.007Z,2.10
2023-04-25T11:14:14.895Z,2.03
2023-04-25T11:19:37.647Z,2.60
2023-04-25T11:24:59.593Z,2.13
2023-04-25T11:30:26.746Z,2.42
2023-04-25T11:35:48.664Z,1.65
2023-04-25T11:41:11.886Z,2.28
2023-04-25T11:46:33.729Z,2.72
2023-04-25T11:51:56.642Z,2.60
2023-04-25T11:57:19.627Z,2.28
2023-04-25T12:02:41.727Z,1.67
2023-04-25T12:08:03.875Z,1.70
2023-04-25T12:13:36.610Z,1.73
2023-04-25T12:19:00.678Z,2.05
2023-04-25T12:24:39.084Z,2.30
2023-04-25T12:30:03.591Z,2.15
2023-04-25T12:35:25.575Z,2.35
2023-04-25T12:40:47.577Z,2.00
2023-04-25T12:46:09.608Z,2.13
2023-04-25T12:51:32.572Z,2.10
2023-04-25T12:56:55.587Z,2.50
2023-04-25T13:02:24.655Z,2.45
2023-04-25T13:07:46.568Z,2.95
2023-04-25T13:13:08.643Z,2.85
2023-04-25T13:18:33.593Z,2.40
2023-04-25T13:23:55.767Z,2.20
2023-04-25T13:29:17.573Z,2.03
2023-04-25T13:34:39.559Z,1.90
2023-04-25T13:40:02.584Z,1.70
2023-04-25T13:45:24.581Z,1.80
2023-04-25T13:50:46.688Z,1.50
2023-04-25T13:56:08.570Z,1.38
2023-04-25T14:01:38.615Z,1.38
2023-04-25T14:07:00.603Z,1.60
2023-04-25T14:12:22.566Z,1.42
2023-04-25T14:17:44.632Z,1.25
2023-04-25T14:23:06.648Z,1.00
2023-04-25T14:28:28.606Z,1.10
2023-04-25T14:33:50.710Z,0.95
2023-04-25T14:39:15.873Z,1.33
2023-04-25T14:44:37.617Z,0.90
2023-04-25T14:50:01.737Z,0.70
2023-04-25T14:55:23.589Z,0.90
2023-04-25T15:00:45.608Z,1.13
2023-04-25T15:06:09.564Z,1.15
2023-04-25T15:11:31.573Z,0.95
2023-04-25T15:16:53.596Z,1.42
2023-04-25T15:22:15.564Z,0.90
2023-04-25T15:27:38.592Z,1.25
2023-04-25T15:33:00.651Z,1.40
2023-04-25T15:38:22.535Z,1.10
2023-04-25T15:43:45.542Z,1.10
2023-04-25T15:49:07.568Z,1.35
2023-04-25T15:54:29.545Z,1.20
2023-04-25T15:59:51.579Z,1.30
2023-04-25T16:05:13.720Z,1.70
2023-04-25T16:10:35.544Z,1.50
2023-04-25T16:15:57.559Z,1.70
2023-04-25T16:21:22.542Z,1.73
2023-04-25T16:26:44.537Z,1.48
2023-04-25T16:32:06.538Z,1.60
2023-04-25T16:37:28.525Z,1.48
2023-04-25T16:42:50.510Z,1.38
2023-04-25T16:48:12.573Z,1.52
2023-04-25T16:53:34.513Z,1.67
2023-04-25T16:58:56.540Z,1.70
2023-04-25T17:04:18.661Z,1.40
2023-04-25T17:09:40.503Z,1.80
2023-04-25T17:15:02.503Z,1.42
2023-04-25T17:20:24.521Z,1.77
2023-04-25T17:25:46.527Z,1.88
2023-04-25T17:31:08.611Z,1.35
2023-04-25T17:36:30.513Z,1.48
2023-04-25T17:41:52.504Z,1.90
2023-04-25T17:47:14.497Z,1.90
2023-04-25T17:52:36.522Z,2.00
2023-04-25T17:57:58.508Z,2.05
2023-04-25T18:03:27.682Z,2.05
2023-04-25T18:08:51.680Z,1.83
2023-04-25T18:14:14.498Z,1.77
2023-04-25T18:19:36.486Z,1.40
2023-04-25T18:24:58.513Z,1.80
2023-04-25T18:30:20.529Z,1.55
2023-04-25T18:35:55.348Z,1.90
2023-04-25T18:41:42.169Z,1.48
2023-04-25T18:47:02.481Z,1.95
2023-04-25T18:52:25.496Z,2.00
2023-04-25T18:57:47.571Z,1.98
2023-04-25T19:03:16.588Z,1.92
2023-04-25T19:08:38.539Z,1.98
2023-04-25T19:14:04.514Z,2.03
2023-04-25T19:19:26.476Z,2.00
2023-04-25T19:24:52.951Z,1.58
2023-04-25T19:30:24.471Z,2.17
2023-04-25T19:35:46.487Z,1.70
2023-04-25T19:41:08.485Z,1.67
2023-04-25T19:46:30.507Z,1.50
2023-04-25T19:51:52.478Z,1.75
2023-04-25T19:57:14.517Z,1.75
2023-04-25T20:02:36.603Z,1.60
2023-04-25T20:07:58.502Z,1.70
2023-04-25T20:13:20.502Z,1.65
2023-04-25T20:18:42.484Z,2.05
2023-04-25T20:24:04.472Z,2.20
2023-04-25T20:29:26.472Z,2.40
2023-04-25T20:34:48.466Z,2.30
2023-04-25T20:40:12.480Z,2.70
2023-04-25T20:45:38.498Z,2.50
2023-04-25T20:51:00.479Z,2.30
2023-04-25T20:56:23.455Z,1.85
2023-04-25T21:01:45.502Z,2.08
2023-04-25T21:07:22.456Z,3.47
2023-04-25T21:12:44.497Z,5.00
2023-04-25T21:18:06.519Z,3.30
2023-04-25T21:23:28.456Z,2.55
2023-04-25T21:28:50.575Z,2.60
2023-04-25T21:34:13.454Z,2.97
2023-04-25T21:39:35.461Z,2.70
2023-04-25T21:44:57.656Z,2.67
2023-04-25T21:50:19.494Z,2.72
2023-04-25T21:55:41.462Z,2.63
2023-04-25T22:01:03.455Z,2.17
2023-04-25T22:06:25.447Z,2.70
2023-04-25T22:11:49.466Z,2.63
2023-04-25T22:17:12.447Z,2.72
2023-04-25T22:22:34.431Z,2.47
2023-04-25T22:27:57.452Z,2.50
2023-04-25T22:33:19.470Z,2.38
2023-04-25T22:38:41.453Z,2.40
2023-04-25T22:44:03.431Z,2.53
2023-04-25T22:49:25.453Z,2.97
2023-04-25T22:54:47.428Z,2.40
2023-04-25T23:00:14.449Z,2.90
2023-04-25T23:05:37.430Z,2.80
2023-04-25T23:10:59.434Z,3.10
2023-04-25T23:16:22.467Z,2.70
2023-04-25T23:21:44.445Z,2.70
2023-04-25T23:27:06.419Z,3.15
2023-04-25T23:32:28.462Z,2.70
2023-04-25T23:37:51.443Z,3.50
2023-04-25T23:43:13.456Z,2.92
2023-04-25T23:48:35.446Z,2.88
2023-04-25T23:53:57.400Z,3.22
2023-04-25T23:59:19.418Z,3.03
